sensor_id;sensor_type;location;lat;lon;timestamp;temperature;humidity
46482;DHT22;32193;51.446;6.792;2022-09-16T00:03:20;15.10;99.90
46482;DHT22;32193;51.446;6.792;2022-09-16T00:05:49;15.00;99.90
46482;DHT22;32193;51.446;6.792;2022-09-16T00:08:16;15.00;99.90
46482;DHT22;32193;51.446;6.792;2022-09-16T00:13:12;14.90;99.90
46482;DHT22;32193;51.446;6.792;2022-09-16T00:15:46;15.10;99.90
46482;DHT22;32193;51.446;6.792;2022-09-16T00:20:50;14.90;99.90
46482;DHT22;32193;51.446;6.792;2022-09-16T00:23:18;14.90;99.90
46482;DHT22;32193;51.446;6.792;2022-09-16T00:25:43;15.20;99.90
46482;DHT22;32193;51.446;6.792;2022-09-16T00:28:09;14.90;99.90
46482;DHT22;32193;51.446;6.792;2022-09-16T00:30:35;14.80;99.90
46482;DHT22;32193;51.446;6.792;2022-09-16T00:33:01;14.70;99.90
46482;DHT22;32193;51.446;6.792;2022-09-16T00:35:26;14.90;99.90
46482;DHT22;32193;51.446;6.792;2022-09-16T00:37:52;15.10;99.90
46482;DHT22;32193;51.446;6.792;2022-09-16T00:40:18;14.80;99.90
46482;DHT22;32193;51.446;6.792;2022-09-16T00:45:14;14.80;99.90
46482;DHT22;32193;51.446;6.792;2022-09-16T00:52:35;14.70;99.90
46482;DHT22;32193;51.446;6.792;2022-09-16T00:55:03;14.70;99.90
46482;DHT22;32193;51.446;6.792;2022-09-16T00:57:30;14.70;99.90
46482;DHT22;32193;51.446;6.792;2022-09-16T00:59:57;14.60;99.90
46482;DHT22;32193;51.446;6.792;2022-09-16T01:02:24;14.90;99.90
46482;DHT22;32193;51.446;6.792;2022-09-16T01:04:51;14.70;99.90
46482;DHT22;32193;51.446;6.792;2022-09-16T01:07:26;14.70;99.90
46482;DHT22;32193;51.446;6.792;2022-09-16T01:12:19;14.70;99.90
46482;DHT22;32193;51.446;6.792;2022-09-16T01:14:44;14.60;99.90
46482;DHT22;32193;51.446;6.792;2022-09-16T01:37:07;14.40;99.90
46482;DHT22;32193;51.446;6.792;2022-09-16T01:39:44;14.50;99.90
46482;DHT22;32193;51.446;6.792;2022-09-16T01:44:46;14.40;99.90
46482;DHT22;32193;51.446;6.792;2022-09-16T01:47:21;14.40;99.90
46482;DHT22;32193;51.446;6.792;2022-09-16T01:50:25;14.30;99.90
46482;DHT22;32193;51.446;6.792;2022-09-16T01:55:40;14.30;99.90
46482;DHT22;32193;51.446;6.792;2022-09-16T01:58:20;14.30;99.90
46482;DHT22;32193;51.446;6.792;2022-09-16T02:00:50;14.30;99.90
46482;DHT22;32193;51.446;6.792;2022-09-16T02:03:22;14.30;99.90
46482;DHT22;32193;51.446;6.792;2022-09-16T02:06:02;14.40;99.90
46482;DHT22;32193;51.446;6.792;2022-09-16T02:08:32;14.50;99.90
46482;DHT22;32193;51.446;6.792;2022-09-16T02:11:01;14.60;99.90
46482;DHT22;32193;51.446;6.792;2022-09-16T02:13:33;14.40;99.90
46482;DHT22;32193;51.446;6.792;2022-09-16T02:16:04;14.50;99.90
46482;DHT22;32193;51.446;6.792;2022-09-16T02:18:34;14.40;99.90
46482;DHT22;32193;51.446;6.792;2022-09-16T02:21:04;14.70;99.90
46482;DHT22;32193;51.446;6.792;2022-09-16T02:23:38;14.30;99.90
46482;DHT22;32193;51.446;6.792;2022-09-16T02:26:08;14.30;99.90
46482;DHT22;32193;51.446;6.792;2022-09-16T02:28:38;14.60;99.90
46482;DHT22;32193;51.446;6.792;2022-09-16T02:31:06;14.20;99.90
46482;DHT22;32193;51.446;6.792;2022-09-16T02:33:43;14.20;99.90
46482;DHT22;32193;51.446;6.792;2022-09-16T02:36:13;14.20;99.90
46482;DHT22;32193;51.446;6.792;2022-09-16T02:38:42;14.20;99.90
46482;DHT22;32193;51.446;6.792;2022-09-16T02:43:43;14.10;99.90
46482;DHT22;32193;51.446;6.792;2022-09-16T02:49:11;14.20;99.90
46482;DHT22;32193;51.446;6.792;2022-09-16T02:54:22;14.40;99.90
46482;DHT22;32193;51.446;6.792;2022-09-16T02:56:49;14.10;99.90
46482;DHT22;32193;51.446;6.792;2022-09-16T02:59:15;14.30;99.90
46482;DHT22;32193;51.446;6.792;2022-09-16T03:01:44;14.20;99.90
46482;DHT22;32193;51.446;6.792;2022-09-16T03:04:11;14.10;99.90
46482;DHT22;32193;51.446;6.792;2022-09-16T03:06:38;14.30;99.90
46482;DHT22;32193;51.446;6.792;2022-09-16T03:09:10;14.20;99.90
46482;DHT22;32193;51.446;6.792;2022-09-16T03:22:04;14.30;99.90
46482;DHT22;32193;51.446;6.792;2022-09-16T03:24:39;14.30;99.90
46482;DHT22;32193;51.446;6.792;2022-09-16T03:27:11;14.30;99.90
46482;DHT22;32193;51.446;6.792;2022-09-16T03:29:47;14.50;99.90
46482;DHT22;32193;51.446;6.792;2022-09-16T03:32:23;14.20;99.90
46482;DHT22;32193;51.446;6.792;2022-09-16T03:34:54;14.10;99.90
46482;DHT22;32193;51.446;6.792;2022-09-16T03:37:24;14.50;99.90
46482;DHT22;32193;51.446;6.792;2022-09-16T03:39:54;14.20;99.90
46482;DHT22;32193;51.446;6.792;2022-09-16T03:42:21;14.10;99.90
46482;DHT22;32193;51.446;6.792;2022-09-16T03:44:47;14.10;99.90
46482;DHT22;32193;51.446;6.792;2022-09-16T03:49:39;14.00;99.90
46482;DHT22;32193;51.446;6.792;2022-09-16T03:52:04;14.10;99.90
46482;DHT22;32193;51.446;6.792;2022-09-16T03:54:31;14.20;99.90
46482;DHT22;32193;51.446;6.792;2022-09-16T04:01:50;14.20;99.90
46482;DHT22;32193;51.446;6.792;2022-09-16T04:06:42;14.20;99.90
46482;DHT22;32193;51.446;6.792;2022-09-16T04:09:09;14.20;99.90
46482;DHT22;32193;51.446;6.792;2022-09-16T04:14:03;14.20;99.90
46482;DHT22;32193;51.446;6.792;2022-09-16T04:16:29;14.50;99.90
46482;DHT22;32193;51.446;6.792;2022-09-16T04:18:55;14.10;99.90
46482;DHT22;32193;51.446;6.792;2022-09-16T04:21:21;14.20;99.90
46482;DHT22;32193;51.446;6.792;2022-09-16T04:23:47;14.10;99.90
46482;DHT22;32193;51.446;6.792;2022-09-16T04:26:13;14.10;99.90
46482;DHT22;32193;51.446;6.792;2022-09-16T04:28:39;14.10;99.90
46482;DHT22;32193;51.446;6.792;2022-09-16T04:31:10;14.20;99.90
46482;DHT22;32193;51.446;6.792;2022-09-16T04:33:37;14.20;99.90
46482;DHT22;32193;51.446;6.792;2022-09-16T04:38:35;14.30;99.90
46482;DHT22;32193;51.446;6.792;2022-09-16T04:41:06;14.40;99.90
46482;DHT22;32193;51.446;6.792;2022-09-16T04:43:32;14.10;99.90
46482;DHT22;32193;51.446;6.792;2022-09-16T04:45:57;14.00;99.90
46482;DHT22;32193;51.446;6.792;2022-09-16T04:48:23;14.00;99.90
46482;DHT22;32193;51.446;6.792;2022-09-16T04:53:16;13.80;99.90
46482;DHT22;32193;51.446;6.792;2022-09-16T04:55:42;14.00;99.90
46482;DHT22;32193;51.446;6.792;2022-09-16T04:58:08;14.00;99.90
46482;DHT22;32193;51.446;6.792;2022-09-16T05:03:00;13.90;99.90
46482;DHT22;32193;51.446;6.792;2022-09-16T05:07:51;14.00;99.90
46482;DHT22;32193;51.446;6.792;2022-09-16T05:10:17;13.90;99.90
46482;DHT22;32193;51.446;6.792;2022-09-16T05:15:09;14.00;99.90
46482;DHT22;32193;51.446;6.792;2022-09-16T05:17:34;13.90;99.90
46482;DHT22;32193;51.446;6.792;2022-09-16T05:20:00;13.90;99.90
46482;DHT22;32193;51.446;6.792;2022-09-16T05:22:26;14.00;99.90
46482;DHT22;32193;51.446;6.792;2022-09-16T05:24:51;14.00;99.90
46482;DHT22;32193;51.446;6.792;2022-09-16T05:27:17;14.00;99.90
46482;DHT22;32193;51.446;6.792;2022-09-16T05:32:08;14.00;99.90
46482;DHT22;32193;51.446;6.792;2022-09-16T05:34:34;14.00;99.90
46482;DHT22;32193;51.446;6.792;2022-09-16T05:37:01;14.10;99.90
46482;DHT22;32193;51.446;6.792;2022-09-16T05:39:27;14.20;99.90
46482;DHT22;32193;51.446;6.792;2022-09-16T05:41:58;14.30;99.90
46482;DHT22;32193;51.446;6.792;2022-09-16T05:44:25;14.50;99.90
46482;DHT22;32193;51.446;6.792;2022-09-16T05:46:51;14.60;99.90
46482;DHT22;32193;51.446;6.792;2022-09-16T05:51:45;14.70;99.90
46482;DHT22;32193;51.446;6.792;2022-09-16T05:54:12;14.80;99.90
46482;DHT22;32193;51.446;6.792;2022-09-16T05:59:04;14.70;99.90
46482;DHT22;32193;51.446;6.792;2022-09-16T06:01:32;14.60;99.90
46482;DHT22;32193;51.446;6.792;2022-09-16T06:04:01;14.50;99.90
46482;DHT22;32193;51.446;6.792;2022-09-16T06:06:28;14.30;99.90
46482;DHT22;32193;51.446;6.792;2022-09-16T06:08:56;14.30;99.90
46482;DHT22;32193;51.446;6.792;2022-09-16T06:11:23;14.30;99.90
46482;DHT22;32193;51.446;6.792;2022-09-16T06:13:53;14.30;99.90
46482;DHT22;32193;51.446;6.792;2022-09-16T06:16:23;14.30;99.90
46482;DHT22;32193;51.446;6.792;2022-09-16T06:18:54;14.30;99.90
46482;DHT22;32193;51.446;6.792;2022-09-16T06:23:46;14.30;99.90
46482;DHT22;32193;51.446;6.792;2022-09-16T06:26:14;14.40;99.90
46482;DHT22;32193;51.446;6.792;2022-09-16T06:31:15;14.30;99.90
46482;DHT22;32193;51.446;6.792;2022-09-16T06:33:41;14.30;99.90
46482;DHT22;32193;51.446;6.792;2022-09-16T06:36:16;14.60;99.90
46482;DHT22;32193;51.446;6.792;2022-09-16T06:41:10;14.40;99.90
46482;DHT22;32193;51.446;6.792;2022-09-16T06:43:36;14.60;99.90
46482;DHT22;32193;51.446;6.792;2022-09-16T06:46:05;14.60;99.90
46482;DHT22;32193;51.446;6.792;2022-09-16T06:51:02;14.60;99.90
46482;DHT22;32193;51.446;6.792;2022-09-16T06:53:29;14.40;99.90
46482;DHT22;32193;51.446;6.792;2022-09-16T06:55:58;14.70;99.90
46482;DHT22;32193;51.446;6.792;2022-09-16T06:58:24;14.90;99.90
46482;DHT22;32193;51.446;6.792;2022-09-16T07:00:50;14.90;99.90
46482;DHT22;32193;51.446;6.792;2022-09-16T07:03:15;14.90;99.90
46482;DHT22;32193;51.446;6.792;2022-09-16T07:05:41;15.10;99.90
46482;DHT22;32193;51.446;6.792;2022-09-16T07:12:59;15.20;99.90
46482;DHT22;32193;51.446;6.792;2022-09-16T07:17:54;15.50;99.90
46482;DHT22;32193;51.446;6.792;2022-09-16T07:22:45;15.50;99.90
46482;DHT22;32193;51.446;6.792;2022-09-16T07:25:15;15.40;99.90
46482;DHT22;32193;51.446;6.792;2022-09-16T07:30:07;16.20;99.90
46482;DHT22;32193;51.446;6.792;2022-09-16T07:34:59;16.70;99.90
46482;DHT22;32193;51.446;6.792;2022-09-16T07:37:24;17.20;99.90
46482;DHT22;32193;51.446;6.792;2022-09-16T07:39:50;17.40;99.90
46482;DHT22;32193;51.446;6.792;2022-09-16T07:49:34;18.50;99.90
46482;DHT22;32193;51.446;6.792;2022-09-16T07:54:25;19.10;99.90
46482;DHT22;32193;51.446;6.792;2022-09-16T07:56:51;19.20;99.90
46482;DHT22;32193;51.446;6.792;2022-09-16T07:59:18;19.30;99.90
46482;DHT22;32193;51.446;6.792;2022-09-16T08:04:09;19.10;99.90
46482;DHT22;32193;51.446;6.792;2022-09-16T08:06:37;18.70;99.90
46482;DHT22;32193;51.446;6.792;2022-09-16T08:09:03;18.30;99.90
46482;DHT22;32193;51.446;6.792;2022-09-16T08:11:30;18.10;99.90
46482;DHT22;32193;51.446;6.792;2022-09-16T08:13:59;17.90;99.90
46482;DHT22;32193;51.446;6.792;2022-09-16T08:18:54;17.90;99.90
46482;DHT22;32193;51.446;6.792;2022-09-16T08:21:22;17.70;99.90
46482;DHT22;32193;51.446;6.792;2022-09-16T08:26:15;17.30;99.90
46482;DHT22;32193;51.446;6.792;2022-09-16T08:28:43;17.50;99.90
46482;DHT22;32193;51.446;6.792;2022-09-16T08:31:09;17.50;99.90
46482;DHT22;32193;51.446;6.792;2022-09-16T08:33:38;17.50;99.90
46482;DHT22;32193;51.446;6.792;2022-09-16T08:36:08;17.70;99.90
46482;DHT22;32193;51.446;6.792;2022-09-16T08:38:35;18.00;99.90
46482;DHT22;32193;51.446;6.792;2022-09-16T08:46:34;18.00;99.90
46482;DHT22;32193;51.446;6.792;2022-09-16T08:49:15;17.30;99.90
46482;DHT22;32193;51.446;6.792;2022-09-16T08:56:48;18.20;99.90
46482;DHT22;32193;51.446;6.792;2022-09-16T08:59:19;18.40;99.90
46482;DHT22;32193;51.446;6.792;2022-09-16T09:04:33;18.00;99.90
46482;DHT22;32193;51.446;6.792;2022-09-16T09:25:58;18.50;99.90
46482;DHT22;32193;51.446;6.792;2022-09-16T09:28:49;18.70;99.90
46482;DHT22;32193;51.446;6.792;2022-09-16T09:41:53;17.70;99.90
46482;DHT22;32193;51.446;6.792;2022-09-16T09:44:44;17.90;99.90
46482;DHT22;32193;51.446;6.792;2022-09-16T09:47:15;18.10;99.90
46482;DHT22;32193;51.446;6.792;2022-09-16T09:49:45;18.30;99.90
46482;DHT22;32193;51.446;6.792;2022-09-16T09:52:20;18.60;99.90
46482;DHT22;32193;51.446;6.792;2022-09-16T09:54:49;18.70;99.90
46482;DHT22;32193;51.446;6.792;2022-09-16T10:00:09;18.40;99.90
46482;DHT22;32193;51.446;6.792;2022-09-16T10:02:40;19.80;99.90
46482;DHT22;32193;51.446;6.792;2022-09-16T10:05:20;18.30;99.90
46482;DHT22;32193;51.446;6.792;2022-09-16T10:07:46;18.10;99.90
46482;DHT22;32193;51.446;6.792;2022-09-16T10:10:20;17.90;99.90
46482;DHT22;32193;51.446;6.792;2022-09-16T10:12:46;17.90;99.90
46482;DHT22;32193;51.446;6.792;2022-09-16T10:15:25;18.00;99.90
46482;DHT22;32193;51.446;6.792;2022-09-16T10:17:52;18.40;99.90
46482;DHT22;32193;51.446;6.792;2022-09-16T10:20:32;18.80;99.90
46482;DHT22;32193;51.446;6.792;2022-09-16T10:25:27;18.60;99.90
46482;DHT22;32193;51.446;6.792;2022-09-16T10:27:56;18.30;99.90
46482;DHT22;32193;51.446;6.792;2022-09-16T10:30:47;18.10;99.90
46482;DHT22;32193;51.446;6.792;2022-09-16T10:36:02;17.90;99.90
46482;DHT22;32193;51.446;6.792;2022-09-16T10:38:40;18.00;99.90
46482;DHT22;32193;51.446;6.792;2022-09-16T10:41:13;18.00;99.90
46482;DHT22;32193;51.446;6.792;2022-09-16T10:43:46;18.20;99.90
46482;DHT22;32193;51.446;6.792;2022-09-16T10:46:14;18.30;99.90
46482;DHT22;32193;51.446;6.792;2022-09-16T10:48:41;18.00;99.90
46482;DHT22;32193;51.446;6.792;2022-09-16T10:53:58;18.30;99.90
46482;DHT22;32193;51.446;6.792;2022-09-16T10:56:26;18.70;99.90
46482;DHT22;32193;51.446;6.792;2022-09-16T10:59:12;18.90;99.90
46482;DHT22;32193;51.446;6.792;2022-09-16T11:12:40;18.30;99.90
46482;DHT22;32193;51.446;6.792;2022-09-16T11:20:41;16.00;99.90
46482;DHT22;32193;51.446;6.792;2022-09-16T11:29:23;15.00;99.90
46482;DHT22;32193;51.446;6.792;2022-09-16T11:37:22;15.20;99.90
46482;DHT22;32193;51.446;6.792;2022-09-16T11:42:25;15.10;99.90
46482;DHT22;32193;51.446;6.792;2022-09-16T11:45:26;15.20;99.90
46482;DHT22;32193;51.446;6.792;2022-09-16T11:56:53;15.60;99.90
46482;DHT22;32193;51.446;6.792;2022-09-16T12:01:55;15.80;99.90
46482;DHT22;32193;51.446;6.792;2022-09-16T12:07:21;16.10;99.90
46482;DHT22;32193;51.446;6.792;2022-09-16T12:09:59;16.30;99.90
46482;DHT22;32193;51.446;6.792;2022-09-16T12:12:37;16.60;99.90
46482;DHT22;32193;51.446;6.792;2022-09-16T12:15:20;16.60;99.90
46482;DHT22;32193;51.446;6.792;2022-09-16T12:17:53;16.80;99.90
46482;DHT22;32193;51.446;6.792;2022-09-16T12:20:29;16.90;99.90
46482;DHT22;32193;51.446;6.792;2022-09-16T12:23:14;17.00;99.90
46482;DHT22;32193;51.446;6.792;2022-09-16T12:26:01;16.80;99.90
46482;DHT22;32193;51.446;6.792;2022-09-16T12:28:38;16.80;99.90
46482;DHT22;32193;51.446;6.792;2022-09-16T12:31:25;16.70;99.90
46482;DHT22;32193;51.446;6.792;2022-09-16T12:34:04;16.60;99.90
46482;DHT22;32193;51.446;6.792;2022-09-16T12:36:35;16.70;99.90
46482;DHT22;32193;51.446;6.792;2022-09-16T12:50:15;17.20;99.90
46482;DHT22;32193;51.446;6.792;2022-09-16T12:56:01;17.20;99.90
46482;DHT22;32193;51.446;6.792;2022-09-16T12:58:42;16.80;99.90
46482;DHT22;32193;51.446;6.792;2022-09-16T13:03:43;16.90;99.90
46482;DHT22;32193;51.446;6.792;2022-09-16T13:06:29;17.00;99.90
46482;DHT22;32193;51.446;6.792;2022-09-16T13:09:11;17.30;99.90
46482;DHT22;32193;51.446;6.792;2022-09-16T13:14:20;17.50;99.90
46482;DHT22;32193;51.446;6.792;2022-09-16T13:16:53;17.30;99.90
46482;DHT22;32193;51.446;6.792;2022-09-16T13:24:42;16.80;99.90
46482;DHT22;32193;51.446;6.792;2022-09-16T13:27:28;16.40;99.90
46482;DHT22;32193;51.446;6.792;2022-09-16T13:32:56;15.80;99.90
46482;DHT22;32193;51.446;6.792;2022-09-16T13:35:38;15.80;99.90
46482;DHT22;32193;51.446;6.792;2022-09-16T13:48:21;15.80;99.90
46482;DHT22;32193;51.446;6.792;2022-09-16T13:50:59;15.90;99.90
46482;DHT22;32193;51.446;6.792;2022-09-16T13:55:55;16.00;99.90
46482;DHT22;32193;51.446;6.792;2022-09-16T13:58:52;16.20;99.90
46482;DHT22;32193;51.446;6.792;2022-09-16T14:04:08;16.30;99.90
46482;DHT22;32193;51.446;6.792;2022-09-16T14:09:28;16.40;99.90
46482;DHT22;32193;51.446;6.792;2022-09-16T14:12:14;16.40;99.90
46482;DHT22;32193;51.446;6.792;2022-09-16T14:14:42;16.40;99.90
46482;DHT22;32193;51.446;6.792;2022-09-16T14:17:16;16.30;99.90
46482;DHT22;32193;51.446;6.792;2022-09-16T14:19:43;16.30;99.90
46482;DHT22;32193;51.446;6.792;2022-09-16T14:22:19;16.20;99.90
46482;DHT22;32193;51.446;6.792;2022-09-16T14:24:50;16.30;99.90
46482;DHT22;32193;51.446;6.792;2022-09-16T14:27:27;16.20;99.90
46482;DHT22;32193;51.446;6.792;2022-09-16T14:29:57;16.20;99.90
46482;DHT22;32193;51.446;6.792;2022-09-16T14:32:35;16.30;99.90
46482;DHT22;32193;51.446;6.792;2022-09-16T14:35:07;16.30;99.90
46482;DHT22;32193;51.446;6.792;2022-09-16T14:37:34;16.30;99.90
46482;DHT22;32193;51.446;6.792;2022-09-16T14:40:08;16.30;99.90
46482;DHT22;32193;51.446;6.792;2022-09-16T14:42:36;16.40;99.90
46482;DHT22;32193;51.446;6.792;2022-09-16T14:45:03;16.50;99.90
46482;DHT22;32193;51.446;6.792;2022-09-16T14:47:35;16.50;99.90
46482;DHT22;32193;51.446;6.792;2022-09-16T14:50:10;16.90;99.90
46482;DHT22;32193;51.446;6.792;2022-09-16T14:55:18;16.70;99.90
46482;DHT22;32193;51.446;6.792;2022-09-16T14:57:44;16.60;99.90
46482;DHT22;32193;51.446;6.792;2022-09-16T15:00:15;16.70;99.90
46482;DHT22;32193;51.446;6.792;2022-09-16T15:02:45;16.60;99.90
46482;DHT22;32193;51.446;6.792;2022-09-16T15:05:24;16.50;99.90
46482;DHT22;32193;51.446;6.792;2022-09-16T15:07:54;16.60;99.90
46482;DHT22;32193;51.446;6.792;2022-09-16T15:10:26;16.60;99.90
46482;DHT22;32193;51.446;6.792;2022-09-16T15:12:59;16.50;99.90
46482;DHT22;32193;51.446;6.792;2022-09-16T15:15:28;16.50;99.90
46482;DHT22;32193;51.446;6.792;2022-09-16T15:21:23;16.30;99.90
46482;DHT22;32193;51.446;6.792;2022-09-16T15:23:46;16.20;99.90
46482;DHT22;32193;51.446;6.792;2022-09-16T15:26:18;16.20;99.90
46482;DHT22;32193;51.446;6.792;2022-09-16T15:28:56;16.30;99.90
46482;DHT22;32193;51.446;6.792;2022-09-16T15:31:39;16.20;99.90
46482;DHT22;32193;51.446;6.792;2022-09-16T15:34:23;16.10;99.90
46482;DHT22;32193;51.446;6.792;2022-09-16T15:36:50;16.00;99.90
46482;DHT22;32193;51.446;6.792;2022-09-16T15:42:00;15.80;99.90
46482;DHT22;32193;51.446;6.792;2022-09-16T15:44:26;15.70;99.90
46482;DHT22;32193;51.446;6.792;2022-09-16T15:46:52;15.70;99.90
46482;DHT22;32193;51.446;6.792;2022-09-16T15:51:47;15.70;99.90
46482;DHT22;32193;51.446;6.792;2022-09-16T16:01:52;15.70;99.90
46482;DHT22;32193;51.446;6.792;2022-09-16T16:04:31;15.80;99.90
46482;DHT22;32193;51.446;6.792;2022-09-16T16:07:03;15.90;99.90
46482;DHT22;32193;51.446;6.792;2022-09-16T16:09:29;15.90;99.90
46482;DHT22;32193;51.446;6.792;2022-09-16T16:12:01;15.80;99.90
46482;DHT22;32193;51.446;6.792;2022-09-16T16:14:31;15.80;99.90
46482;DHT22;32193;51.446;6.792;2022-09-16T16:17:00;15.80;99.90
46482;DHT22;32193;51.446;6.792;2022-09-16T16:19:26;15.80;99.90
46482;DHT22;32193;51.446;6.792;2022-09-16T16:24:19;15.80;99.90
46482;DHT22;32193;51.446;6.792;2022-09-16T16:26:44;16.00;99.90
46482;DHT22;32193;51.446;6.792;2022-09-16T16:29:10;15.80;99.90
46482;DHT22;32193;51.446;6.792;2022-09-16T16:31:35;15.90;99.90
46482;DHT22;32193;51.446;6.792;2022-09-16T16:34:02;15.80;99.90
46482;DHT22;32193;51.446;6.792;2022-09-16T16:36:28;15.90;99.90
46482;DHT22;32193;51.446;6.792;2022-09-16T16:38:53;15.80;99.90
46482;DHT22;32193;51.446;6.792;2022-09-16T16:41:23;15.80;99.90
46482;DHT22;32193;51.446;6.792;2022-09-16T16:43:49;15.70;99.90
46482;DHT22;32193;51.446;6.792;2022-09-16T16:46:15;15.70;99.90
46482;DHT22;32193;51.446;6.792;2022-09-16T16:51:10;15.60;99.90
46482;DHT22;32193;51.446;6.792;2022-09-16T16:53:36;15.50;99.90
46482;DHT22;32193;51.446;6.792;2022-09-16T16:56:12;15.50;99.90
46482;DHT22;32193;51.446;6.792;2022-09-16T16:58:38;15.50;99.90
46482;DHT22;32193;51.446;6.792;2022-09-16T17:01:13;15.50;99.90
46482;DHT22;32193;51.446;6.792;2022-09-16T17:03:39;15.50;99.90
46482;DHT22;32193;51.446;6.792;2022-09-16T17:06:05;15.50;99.90
46482;DHT22;32193;51.446;6.792;2022-09-16T17:08:32;15.30;99.90
46482;DHT22;32193;51.446;6.792;2022-09-16T17:11:09;15.30;99.90
46482;DHT22;32193;51.446;6.792;2022-09-16T17:13:40;15.20;99.90
46482;DHT22;32193;51.446;6.792;2022-09-16T17:16:07;15.30;99.90
46482;DHT22;32193;51.446;6.792;2022-09-16T17:18:34;15.40;99.90
46482;DHT22;32193;51.446;6.792;2022-09-16T17:21:12;15.10;99.90
46482;DHT22;32193;51.446;6.792;2022-09-16T17:23:38;15.00;99.90
46482;DHT22;32193;51.446;6.792;2022-09-16T17:26:05;15.00;99.90
46482;DHT22;32193;51.446;6.792;2022-09-16T17:28:31;15.10;99.90
46482;DHT22;32193;51.446;6.792;2022-09-16T17:30:57;14.80;99.90
46482;DHT22;32193;51.446;6.792;2022-09-16T17:33:23;14.80;99.90
46482;DHT22;32193;51.446;6.792;2022-09-16T17:35:59;14.80;99.90
46482;DHT22;32193;51.446;6.792;2022-09-16T17:38:26;15.10;99.90
46482;DHT22;32193;51.446;6.792;2022-09-16T17:40:51;14.90;99.90
46482;DHT22;32193;51.446;6.792;2022-09-16T17:43:17;14.90;99.90
46482;DHT22;32193;51.446;6.792;2022-09-16T17:45:45;14.70;99.90
46482;DHT22;32193;51.446;6.792;2022-09-16T17:53:05;15.00;99.90
46482;DHT22;32193;51.446;6.792;2022-09-16T17:55:31;14.60;99.90
46482;DHT22;32193;51.446;6.792;2022-09-16T17:57:56;14.60;99.90
46482;DHT22;32193;51.446;6.792;2022-09-16T18:00:22;14.90;99.90
46482;DHT22;32193;51.446;6.792;2022-09-16T18:02:47;14.90;99.90
46482;DHT22;32193;51.446;6.792;2022-09-16T18:07:39;14.40;99.90
46482;DHT22;32193;51.446;6.792;2022-09-16T18:10:05;15.00;99.90
46482;DHT22;32193;51.446;6.792;2022-09-16T18:17:22;14.30;99.90
46482;DHT22;32193;51.446;6.792;2022-09-16T18:22:14;14.50;99.90
46482;DHT22;32193;51.446;6.792;2022-09-16T18:24:39;14.30;99.90
46482;DHT22;32193;51.446;6.792;2022-09-16T18:27:05;14.30;99.90
46482;DHT22;32193;51.446;6.792;2022-09-16T18:31:56;14.00;99.90
46482;DHT22;32193;51.446;6.792;2022-09-16T18:34:22;14.00;99.90
46482;DHT22;32193;51.446;6.792;2022-09-16T18:36:49;14.40;99.90
46482;DHT22;32193;51.446;6.792;2022-09-16T18:39:15;14.10;99.90
46482;DHT22;32193;51.446;6.792;2022-09-16T18:41:42;14.10;99.90
46482;DHT22;32193;51.446;6.792;2022-09-16T18:44:19;14.00;99.90
46482;DHT22;32193;51.446;6.792;2022-09-16T18:49:13;14.00;99.90
46482;DHT22;32193;51.446;6.792;2022-09-16T18:51:41;13.80;99.90
46482;DHT22;32193;51.446;6.792;2022-09-16T18:54:11;13.70;99.90
46482;DHT22;32193;51.446;6.792;2022-09-16T18:56:38;13.90;99.90
46482;DHT22;32193;51.446;6.792;2022-09-16T18:59:15;13.90;99.90
46482;DHT22;32193;51.446;6.792;2022-09-16T19:01:42;14.00;99.90
46482;DHT22;32193;51.446;6.792;2022-09-16T19:04:10;13.90;99.90
46482;DHT22;32193;51.446;6.792;2022-09-16T19:06:41;13.60;99.90
46482;DHT22;32193;51.446;6.792;2022-09-16T19:09:08;13.60;99.90
46482;DHT22;32193;51.446;6.792;2022-09-16T19:11:35;13.60;99.90
46482;DHT22;32193;51.446;6.792;2022-09-16T19:14:02;13.70;99.90
46482;DHT22;32193;51.446;6.792;2022-09-16T19:16:28;13.70;99.90
46482;DHT22;32193;51.446;6.792;2022-09-16T19:18:55;13.70;99.90
46482;DHT22;32193;51.446;6.792;2022-09-16T19:21:21;13.60;99.90
46482;DHT22;32193;51.446;6.792;2022-09-16T19:23:53;13.60;99.90
46482;DHT22;32193;51.446;6.792;2022-09-16T19:26:19;13.50;99.90
46482;DHT22;32193;51.446;6.792;2022-09-16T19:28:45;13.70;99.90
46482;DHT22;32193;51.446;6.792;2022-09-16T19:31:12;13.50;99.90
46482;DHT22;32193;51.446;6.792;2022-09-16T19:33:39;13.40;99.90
46482;DHT22;32193;51.446;6.792;2022-09-16T19:36:21;13.60;99.90
46482;DHT22;32193;51.446;6.792;2022-09-16T19:38:47;13.50;99.90
46482;DHT22;32193;51.446;6.792;2022-09-16T19:41:14;13.40;99.90
46482;DHT22;32193;51.446;6.792;2022-09-16T19:43:40;13.50;99.90
46482;DHT22;32193;51.446;6.792;2022-09-16T19:46:11;13.50;99.90
46482;DHT22;32193;51.446;6.792;2022-09-16T19:48:38;13.50;99.90
46482;DHT22;32193;51.446;6.792;2022-09-16T19:51:06;13.20;99.90
46482;DHT22;32193;51.446;6.792;2022-09-16T19:53:33;13.30;99.90
46482;DHT22;32193;51.446;6.792;2022-09-16T19:56:02;13.10;99.90
46482;DHT22;32193;51.446;6.792;2022-09-16T19:58:29;13.30;99.90
46482;DHT22;32193;51.446;6.792;2022-09-16T20:01:00;13.10;99.90
46482;DHT22;32193;51.446;6.792;2022-09-16T20:03:28;13.30;99.90
46482;DHT22;32193;51.446;6.792;2022-09-16T20:08:31;13.10;99.90
46482;DHT22;32193;51.446;6.792;2022-09-16T20:11:20;13.40;99.90
46482;DHT22;32193;51.446;6.792;2022-09-16T20:13:54;13.20;99.90
46482;DHT22;32193;51.446;6.792;2022-09-16T20:16:24;13.20;99.90
46482;DHT22;32193;51.446;6.792;2022-09-16T20:18:51;13.30;99.90
46482;DHT22;32193;51.446;6.792;2022-09-16T20:21:22;13.50;99.90
46482;DHT22;32193;51.446;6.792;2022-09-16T20:23:49;13.20;99.90
46482;DHT22;32193;51.446;6.792;2022-09-16T20:26:17;13.40;99.90
46482;DHT22;32193;51.446;6.792;2022-09-16T20:28:49;12.90;99.90
46482;DHT22;32193;51.446;6.792;2022-09-16T20:31:17;13.00;99.90
46482;DHT22;32193;51.446;6.792;2022-09-16T20:33:44;13.50;99.90
46482;DHT22;32193;51.446;6.792;2022-09-16T20:36:12;13.20;99.90
46482;DHT22;32193;51.446;6.792;2022-09-16T20:38:39;13.60;99.90
46482;DHT22;32193;51.446;6.792;2022-09-16T20:41:06;13.50;99.90
46482;DHT22;32193;51.446;6.792;2022-09-16T20:43:32;13.20;99.90
46482;DHT22;32193;51.446;6.792;2022-09-16T20:46:06;13.10;99.90
46482;DHT22;32193;51.446;6.792;2022-09-16T20:48:32;13.10;99.90
46482;DHT22;32193;51.446;6.792;2022-09-16T20:53:28;13.40;99.90
46482;DHT22;32193;51.446;6.792;2022-09-16T20:56:09;13.10;99.90
46482;DHT22;32193;51.446;6.792;2022-09-16T20:58:35;12.80;99.90
46482;DHT22;32193;51.446;6.792;2022-09-16T21:01:05;13.20;99.90
46482;DHT22;32193;51.446;6.792;2022-09-16T21:03:31;13.10;99.90
46482;DHT22;32193;51.446;6.792;2022-09-16T21:06:05;12.90;99.90
46482;DHT22;32193;51.446;6.792;2022-09-16T21:08:31;12.80;99.90
46482;DHT22;32193;51.446;6.792;2022-09-16T21:13:25;12.50;99.90
46482;DHT22;32193;51.446;6.792;2022-09-16T21:15:57;13.30;99.90